Lycksele, Sweden

7:29 PM CEST on July 26, 2016 (GMT +0200)
Lycksele | | Change Station

Elev 702 ft 64.55 °N, 18.72 °E | Updated 9 minutes ago

Clear
Clear
73 °F
Feels Like 73 °F
N
12
Wind Variable Wind from SE

Today
High -- | Low -- °F
--% Chance of Precip.
Yesterday
High -- | Low -- °F
Precip. -- in
Pressure 29.86 in
Visibility 6.2 miles
Clouds
Dew Point 57 °F
Humidity 57%
Rainfall 0.00 in
Snow Depth Not available.
3:28 AM 10:12 PM
Waning Gibbous, 53% visible
METAR ESNL 261720Z AUTO 13010KT 9999 NCD 23/14 Q1011
Pressure 29.86 in
Visibility 6.2 miles
Clouds
Dew Point 57 °F
Humidity 57%
Rainfall 0.00 in
Snow Depth Not available.
3:28 AM 10:12 PM
Waning Gibbous, 53% visible
METAR ESNL 261720Z AUTO 13010KT 9999 NCD 23/14 Q1011

10-Day Weather Forecast

×

Almanac

Astronomy

Jul. 26, 2016 Rise Set
Actual Time
Civil Twilight
Nautical Twilight
Astronomical Twilight
Moon
Length of Visible Light
Length of Day
Tomorrow will be .
, % of the Moon is Illuminated

Today's Extremes

Country Highs Country Lows

Community

WunderPhotos

Upload Photos

1,927,640 photos uploaded!

WunderBlog® & News

Nearby

Air Quality

  Air Quality AQ Index Pollutant
Not available.

Snow Depth

Station Depth Elevation

Earthquake Activity

City Distance Mag. Time & Date
Minimum magnitude displayed is 2.5.

Coastal Water Temperatures

Place Temperature

Stations

Nearby Weather Stations

Station Location Temp. Windchill Dew Point Humidity Wind Precip. Elev Updated Type